Latest Weather Observations for Bankstown

IDN60801

Issued at 11:03 am EST Wednesday 25 May 2016 (issued every 30 minutes, with the page automatically refreshed every 10 minutes)

About weather observations | Map of weather stations | Latest weather observations for NSW | Other Formats
Station Details ID: 066137 Name: BANKSTOWN AIRPORT AWS Lat: -33.92 Lon: 150.99 Height: 6.5 m
Data from the previous 72 hours. | See also: Recent months at Bankstown
Date/Time
EST
Temp
°C
App
Temp
°C
Dew
Point
Rel
Hum
%
Delta-T
°C
Wind Press
QNH
hPa
Press
MSL
hPa
Rain
since 9 am
mm
Dir
 
Spd
km/h
Gust
km/h
Spd
kts
Gust
kts
25/11:00am 16.7 13.1 2.7 39 6.3 NW 11 15 6 8 1017.1 1017.1 0.0
25/10:30am 15.7 12.6 3.8 45 5.5 WNW 9 17 5 9 1017.9 1017.9 0.0
25/10:00am 14.7 11.8 4.7 51 4.6 WNW 9 17 5 9 1018.2 1018.2 0.0
25/09:30am 13.7 10.8 4.8 55 4.1 W 9 13 5 7 1018.2 1018.2 0.0
25/09:00am 12.1 9.9 5.5 64 3.1 W 6 9 3 5 1018.1 1018.1 0.0
25/08:30am 10.0 8.9 5.2 72 2.2 CALM 0 0 0 0 1018.2 1018.2 0.0
25/08:00am 6.6 5.5 5.1 90 0.7 CALM 0 0 0 0 1018.1 1018.1 0.0
25/07:30am 5.4 4.2 4.5 94 0.4 CALM 0 0 0 0 1018.1 1018.1 0.0
25/07:00am 3.4 1.8 2.4 93 0.4 CALM 0 0 0 0 1017.7 1017.7 0.0
25/06:30am 3.8 2.3 2.8 93 0.4 CALM 0 0 0 0 1017.5 1017.5 0.0
25/06:00am 4.1 2.6 2.8 91 0.5 CALM 0 0 0 0 1017.2 1017.2 0.0
25/05:30am 4.8 2.9 2.8 87 0.8 W 2 6 1 3 1016.9 1016.9 0.0
25/05:00am 4.8 3.4 3.5 91 0.5 CALM 0 0 0 0 1016.8 1016.8 0.0
25/04:30am 4.5 2.9 2.4 86 0.8 CALM 0 0 0 0 1017.0 1017.0 0.0
25/04:00am 5.5 4.1 3.5 87 0.8 CALM 0 0 0 0 1017.0 1017.0 0.0
25/03:30am 5.8 4.0 3.3 84 1.0 W 2 7 1 4 1017.0 1017.0 0.0
25/03:00am 6.6 5.3 3.9 83 1.1 CALM 0 0 0 0 1016.9 1016.9 0.0
25/02:30am 6.5 4.0 3.5 81 1.3 W 6 9 3 5 1017.2 1017.2 0.0
25/02:00am 6.5 3.7 3.1 79 1.4 WSW 7 9 4 5 1017.3 1017.3 0.0
25/01:30am 8.4 7.2 4.4 76 1.8 CALM 0 6 0 3 1017.3 1017.3 0.0
25/01:00am 8.0 6.4 4.6 79 1.5 WSW 2 7 1 4 1017.5 1017.5 0.0
25/12:45am 7.4 6.1 4.0 79 1.5 CALM 0 0 0 0 1017.6 1017.6 0.0
25/12:30am 7.5 6.2 3.9 78 1.5 CALM 0 0 0 0 1017.6 1017.6 0.0
25/12:07am 7.1 5.5 2.2 71 2.0 CALM 0 0 0 0 1017.8 1017.8 0.0
25/12:00am 8.6 7.1 3.0 68 2.4 CALM 0 0 0 0 1017.8 1017.8 0.0
 
Date/Time
EST
Temp
°C
App
Temp
°C
Dew
Point
Rel
Hum
%
Delta-T
°C
Wind Press
QNH
hPa
Press
MSL
hPa
Rain
since 9 am
mm
Dir
 
Spd
km/h
Gust
km/h
Spd
kts
Gust
kts
24/11:32pm 9.6 8.4 4.4 70 2.3 CALM 0 0 0 0 1017.8 1017.8 0.0
24/11:30pm 9.6 8.4 4.4 70 2.3 CALM 0 0 0 0 1017.8 1017.8 0.0
24/11:14pm 9.1 7.5 2.4 63 2.8 CALM 0 0 0 0 1017.9 1017.9 0.0
24/11:00pm 11.2 10.0 4.4 63 3.0 CALM 0 0 0 0 1017.9 1017.9 0.0
24/10:30pm 11.0 9.2 3.3 59 3.4 WSW 2 6 1 3 1017.7 1017.7 0.0
24/10:00pm 12.6 10.1 3.8 55 3.9 WSW 6 9 3 5 1017.7 1017.7 0.0
24/09:30pm 13.5 10.1 3.8 52 4.4 WSW 11 17 6 9 1017.8 1017.8 0.0
24/09:28pm 13.8 10.4 4.1 52 4.4 WSW 11 17 6 9 1017.7 1017.7 0.0
24/09:14pm 13.7 10.0 4.3 53 4.3 W 13 19 7 10 1017.7 1017.7 0.0
24/09:00pm 14.0 10.7 4.3 52 4.4 WSW 11 17 6 9 1017.8 1017.8 0.0
24/08:30pm 13.9 10.8 3.7 50 4.6 SW 9 15 5 8 1017.6 1017.6 0.0
24/08:00pm 14.2 11.4 3.4 48 4.9 WSW 7 11 4 6 1017.1 1017.1 0.0
24/07:30pm 14.8 10.8 2.7 44 5.4 WSW 13 19 7 10 1016.7 1016.7 0.0
24/07:00pm 15.6 11.6 2.7 42 5.8 W 13 20 7 11 1016.2 1016.2 0.0
24/06:54pm 15.9 11.6 3.0 42 5.9 W 15 20 8 11 1016.1 1016.1 0.0
24/06:30pm 15.9 11.4 2.0 39 6.2 W 15 20 8 11 1015.6 1015.6 0.0
24/06:29pm 15.8 10.9 1.9 39 6.2 W 17 20 9 11 1015.6 1015.6 0.0
24/06:00pm 17.2 11.3 2.0 36 6.8 W 22 32 12 17 1015.5 1015.5 0.0
24/05:30pm 17.6 12.1 1.6 34 7.2 W 20 32 11 17 1015.1 1015.1 0.0
24/05:00pm 18.4 11.7 1.4 32 7.6 W 26 35 14 19 1014.7 1014.7 0.0
24/04:30pm 19.2 12.4 0.8 29 8.2 W 26 37 14 20 1014.4 1014.4 0.0
24/04:00pm 20.1 14.6 0.5 27 8.7 WSW 19 28 10 15 1014.6 1014.6 0.0
24/03:30pm 20.7 14.5 0.0 25 9.2 SW 22 32 12 17 1014.2 1014.2 0.0
24/03:00pm 21.1 14.9 -0.2 24 9.5 SW 22 32 12 17 1014.1 1014.1 0.0
24/02:30pm 21.3 13.9 -0.6 23 9.7 WSW 28 39 15 21 1013.8 1013.8 0.0
24/02:00pm 21.7 16.0 0.3 24 9.6 SW 20 32 11 17 1013.8 1013.8 0.0
24/01:30pm 20.9 14.8 0.2 25 9.2 WSW 22 35 12 19 1014.1 1014.1 0.0
24/01:00pm 20.4 14.7 0.8 27 8.8 WSW 20 30 11 16 1014.3 1014.3 0.0
24/12:30pm 20.1 14.2 1.5 29 8.5 WSW 22 32 12 17 1015.0 1015.0 0.0
24/12:00pm 19.2 13.9 1.7 31 7.9 WSW 19 28 10 15 1015.6 1015.6 0.0
24/11:30am 18.8 13.6 2.2 33 7.6 W 19 30 10 16 1016.2 1016.2 0.0
24/11:00am 18.2 12.6 3.7 38 6.8 W 22 32 12 17 1017.1 1017.1 0.0
24/10:30am 16.9 11.8 3.9 42 6.1 WSW 20 28 11 15 1017.7 1017.7 0.0
24/10:00am 15.4 12.1 4.8 49 5.0 WSW 11 15 6 8 1018.2 1018.2 0.0
24/09:30am 12.9 9.5 3.8 54 4.1 W 11 13 6 7 1018.4 1018.4 0.0
24/09:00am 12.3 9.2 3.8 56 3.8 WSW 9 13 5 7 1018.6 1018.6 0.0
24/08:30am 11.4 8.3 3.4 58 3.5 W 9 11 5 6 1018.7 1018.7 0.0
24/08:00am 10.2 7.0 3.3 62 3.0 W 9 11 5 6 1018.5 1018.5 0.0
24/07:30am 7.9 5.1 3.4 73 1.9 WSW 7 9 4 5 1018.2 1018.2 0.0
24/07:00am 7.1 3.8 2.6 73 1.9 W 9 11 5 6 1018.1 1018.1 0.0
24/06:30am 7.6 5.4 3.1 73 1.9 NNW 4 11 2 6 1017.9 1017.9 0.0
24/06:00am 8.7 7.3 3.3 69 2.3 CALM 0 6 0 3 1017.9 1017.9 0.0
24/05:30am 9.3 5.8 3.5 67 2.5 NW 11 15 6 8 1018.2 1018.2 0.0
24/05:00am 9.2 6.0 3.0 65 2.6 WNW 9 13 5 7 1018.5 1018.5 0.0
24/04:30am 11.3 7.3 3.1 57 3.6 WSW 13 19 7 10 1018.4 1018.4 0.0
24/04:00am 11.7 6.6 3.0 55 3.8 W 19 22 10 12 1018.4 1018.4 0.0
24/03:30am 12.2 6.2 3.2 54 4.0 W 24 30 13 16 1018.4 1018.4 0.0
24/03:00am 11.2 6.2 3.5 59 3.4 W 19 26 10 14 1018.5 1018.5 0.0
24/02:30am 9.6 4.9 3.1 64 2.8 WNW 17 22 9 12 1018.6 1018.6 0.0
24/02:00am 9.4 6.1 2.5 62 2.9 WSW 9 11 5 6 1019.1 1019.1 0.0
24/01:30am 10.2 6.9 2.3 58 3.4 WSW 9 13 5 7 1019.0 1019.0 0.0
24/01:00am 11.2 7.8 2.0 53 3.9 SW 9 13 5 7 1018.7 1018.7 0.0
24/12:30am 13.0 8.9 2.3 48 4.7 WSW 13 17 7 9 1018.5 1018.5 0.0
24/12:00am 12.7 7.8 2.3 49 4.5 W 17 20 9 11 1018.3 1018.3 0.0
 
Date/Time
EST
Temp
°C
App
Temp
°C
Dew
Point
Rel
Hum
%
Delta-T
°C
Wind Press
QNH
hPa
Press
MSL
hPa
Rain
since 9 am
mm
Dir
 
Spd
km/h
Gust
km/h
Spd
kts
Gust
kts
23/11:30pm 13.0 8.9 2.3 48 4.7 W 13 19 7 10 1018.3 1018.3 0.0
23/11:00pm 13.3 8.4 2.2 47 4.8 W 17 24 9 13 1018.4 1018.4 0.0
23/10:30pm 13.0 8.9 2.3 48 4.7 W 13 17 7 9 1018.2 1018.2 0.0
23/10:00pm 13.8 9.7 2.4 46 5.0 W 13 17 7 9 1018.2 1018.2 0.0
23/09:30pm 14.6 9.7 2.2 43 5.5 WSW 17 24 9 13 1018.2 1018.2 0.0
23/09:00pm 15.2 9.9 2.1 41 5.8 WSW 19 28 10 15 1017.8 1017.8 0.0
23/08:30pm 15.1 10.6 2.0 41 5.8 W 15 20 8 11 1017.8 1017.8 0.0
23/08:00pm 16.1 10.5 1.4 37 6.4 WSW 20 32 11 17 1017.5 1017.5 0.0
23/07:30pm 16.6 9.8 1.1 35 6.8 WSW 26 35 14 19 1017.2 1017.2 0.0
23/07:00pm 16.0 10.5 0.6 35 6.6 W 19 26 10 14 1016.9 1016.9 0.0
23/06:30pm 17.5 10.6 0.2 31 7.5 WSW 26 37 14 20 1016.2 1016.2 0.0
23/06:00pm 18.0 12.9 0.6 31 7.6 WSW 17 26 9 14 1016.1 1016.1 0.0
23/05:30pm 18.6 13.0 -0.2 28 8.2 WSW 19 28 10 15 1015.5 1015.5 0.0
23/05:00pm 19.3 13.3 -1.2 25 8.8 SW 20 30 11 16 1015.4 1015.4 0.0
23/04:30pm 20.7 13.5 -1.8 22 9.6 WSW 26 41 14 22 1014.8 1014.8 0.0
23/04:04pm 21.4 14.0 -0.6 23 9.7 WSW 28 46 15 25 1014.1 1014.1 0.0
23/04:00pm 21.6 14.2 -0.4 23 9.8 WSW 28 43 15 23 1014.2 1014.2 0.0
23/03:35pm 22.0 13.9 -0.1 23 9.9 WSW 32 50 17 27 1013.9 1013.9 0.0
23/03:30pm 22.2 14.5 0.1 23 10.0 SW 30 44 16 24 1013.9 1013.9 0.0
23/03:17pm 22.7 15.2 1.1 24 10.0 SW 30 48 16 26 1013.6 1013.6 0.0
23/03:00pm 23.0 15.2 1.9 25 9.9 SW 32 46 17 25 1013.2 1013.2 0.0
23/02:46pm 23.0 14.7 1.9 25 9.9 SW 35 52 19 28 1012.9 1012.9 0.0
23/02:30pm 22.9 17.6 6.6 35 8.4 SW 24 33 13 18 1012.4 1012.4 0.0
23/02:00pm 24.0 19.2 10.3 42 7.6 WSW 26 35 14 19 1012.0 1012.0 0.0
23/01:30pm 23.1 18.9 11.2 47 6.6 WSW 24 35 13 19 1012.0 1012.0 0.0
23/01:00pm 23.8 17.7 10.5 43 7.4 SW 33 46 18 25 1012.2 1012.2 0.0
23/12:30pm 26.1 19.6 10.3 37 8.8 WSW 35 50 19 27 1011.7 1011.7 0.0
23/12:00pm 28.0 23.5 10.2 33 10.0 W 24 43 13 23 1011.3 1011.3 0.0
23/11:32am 26.9 21.6 9.7 34 9.5 W 28 46 15 25 1011.7 1011.7 0.0
23/11:30am 27.0 21.9 10.7 36 9.2 W 28 43 15 23 1011.7 1011.7 0.0
23/11:27am 27.1 21.8 9.9 34 9.6 W 28 43 15 23 1011.8 1011.8 0.0
23/11:00am 26.3 23.7 12.0 41 8.2 W 17 26 9 14 1012.2 1012.2 0.0
23/10:30am 24.9 21.6 11.5 43 7.6 NW 20 30 11 16 1012.6 1012.6 0.0
23/10:00am 24.5 21.5 11.8 45 7.2 NNW 19 26 10 14 1012.8 1012.8 0.0
23/09:30am 21.9 21.7 14.8 64 4.2 WNW 9 15 5 8 1013.4 1013.4 0.0
23/09:25am 20.8 21.1 15.1 70 3.4 W 7 11 4 6 1013.4 1013.4 0.0
23/09:00am 15.8 16.5 13.3 85 1.4 SSE 2 6 1 3 1013.8 1013.8 0.0
23/08:30am 13.8 13.3 12.2 90 0.9 SSE 6 7 3 4 1014.2 1014.2 0.0
23/08:00am 13.7 13.0 11.9 89 1.0 SE 7 11 4 6 1014.2 1014.2 0.0
23/07:30am 10.9 11.0 10.1 95 0.4 CALM 0 0 0 0 1014.3 1014.3 0.0
23/07:27am 10.2 10.1 9.4 95 0.4 CALM 0 0 0 0 1014.4 1014.4 0.0
23/07:08am 9.6 9.3 8.7 94 0.4 CALM 0 0 0 0 1014.5 1014.5 0.0
23/07:00am 9.2 8.8 8.3 94 0.4 CALM 0 0 0 0 1014.6 1014.6 0.0
23/06:30am 10.8 10.9 10.2 96 0.3 CALM 0 0 0 0 1014.7 1014.7 0.0
23/06:00am 10.1 9.6 9.5 96 0.3 NNW 2 9 1 5 1015.2 1015.2 0.0
23/05:53am 10.1 10.0 9.5 96 0.3 CALM 0 0 0 0 1015.2 1015.2 0.0
23/05:34am 9.0 8.6 8.2 95 0.4 CALM 0 0 0 0 1015.3 1015.3 0.0
23/05:30am 9.3 9.0 8.7 96 0.3 CALM 0 0 0 0 1015.3 1015.3 0.0
23/05:09am 9.5 9.2 8.7 95 0.4 CALM 0 0 0 0 1015.4 1015.4 0.0
23/05:00am 9.6 9.4 9.0 96 0.3 CALM 0 0 0 0 1015.4 1015.4 0.0
23/04:47am 9.9 9.8 9.3 96 0.3 CALM 0 0 0 0 1015.3 1015.3 0.0
23/04:31am 10.0 9.8 9.2 95 0.4 CALM 0 0 0 0 1015.5 1015.5 0.0
23/04:30am 9.9 9.7 9.1 95 0.4 CALM 0 0 0 0 1015.5 1015.5 0.0
23/04:00am 10.3 10.2 9.5 95 0.4 CALM 0 0 0 0 1015.9 1015.9 0.0
23/03:30am 10.3 10.2 9.5 95 0.4 CALM 0 0 0 0 1016.3 1016.3 0.0
23/03:28am 10.2 10.1 9.4 95 0.4 CALM 0 0 0 0 1016.4 1016.4 0.0
23/03:00am 11.4 11.7 10.8 96 0.3 CALM 0 0 0 0 1016.8 1016.8 0.0
23/02:55am 11.1 11.3 10.5 96 0.3 CALM 0 0 0 0 1016.9 1016.9 0.0
23/02:54am 11.0 11.2 10.4 96 0.3 CALM 0 0 0 0 1016.9 1016.9 0.0
23/02:34am 10.2 10.1 9.4 95 0.4 CALM 0 0 0 0 1017.1 1017.1 0.0
23/02:30am 10.3 10.2 9.5 95 0.4 CALM 0 0 0 0 1017.1 1017.1 0.0
23/02:16am 10.6 10.6 9.8 95 0.4 CALM 0 0 0 0 1017.2 1017.2 0.0
23/02:00am 11.5 11.8 10.9 96 0.3 CALM 0 0 0 0 1017.2 1017.2 0.0
23/01:48am 11.1 11.2 10.3 95 0.4 CALM 0 0 0 0 1017.2 1017.2 0.0
23/01:30am 11.6 11.9 10.8 95 0.4 CALM 0 0 0 0 1017.3 1017.3 0.0
23/01:10am 11.2 11.3 10.3 94 0.5 CALM 0 0 0 0 1017.6 1017.6 0.0
23/01:00am 12.6 13.2 12.0 96 0.3 CALM 0 0 0 0 1017.6 1017.6 0.0
23/12:44am 12.4 12.9 11.6 95 0.4 CALM 0 0 0 0 1017.7 1017.7 0.0
23/12:30am 11.3 11.4 10.2 93 0.6 CALM 0 0 0 0 1017.9 1017.9 0.0
23/12:19am 12.0 12.4 11.1 94 0.5 CALM 0 0 0 0 1018.0 1018.0 0.0
23/12:10am 12.7 13.3 11.9 95 0.4 CALM 0 0 0 0 1018.1 1018.1 0.0
23/12:00am 12.6 13.2 11.8 95 0.4 CALM 0 0 0 0 1018.1 1018.1 0.0
 
Date/Time
EST
Temp
°C
App
Temp
°C
Dew
Point
Rel
Hum
%
Delta-T
°C
Wind Press
QNH
hPa
Press
MSL
hPa
Rain
since 9 am
mm
Dir
 
Spd
km/h
Gust
km/h
Spd
kts
Gust
kts
22/11:53pm 12.7 13.3 11.9 95 0.4 CALM 0 0 0 0 1018.2 1018.2 0.0
22/11:44pm 12.8 13.4 11.9 94 0.5 CALM 0 0 0 0 1018.3 1018.3 0.0
22/11:30pm 12.7 13.3 11.8 94 0.5 CALM 0 0 0 0 1018.3 1018.3 0.0
22/11:20pm 13.4 14.2 12.5 94 0.5 CALM 0 0 0 0 1018.4 1018.4 0.0
22/11:09pm 13.1 13.8 12.2 94 0.5 CALM 0 0 0 0 1018.5 1018.5 0.0
22/11:00pm 13.3 14.1 12.4 94 0.5 CALM 0 0 0 0 1018.5 1018.5 0.0
22/10:48pm 13.4 14.1 12.3 93 0.6 CALM 0 0 0 0 1018.6 1018.6 0.0
22/10:30pm 14.4 15.5 13.4 94 0.6 CALM 0 0 0 0 1018.7 1018.7 0.0
22/10:12pm 13.6 14.4 12.5 93 0.6 CALM 0 0 0 0 1019.0 1019.0 0.0
22/10:00pm 13.7 14.6 12.9 95 0.4 CALM 0 0 0 0 1019.1 1019.1 0.0
22/09:38pm 14.4 15.5 13.4 94 0.6 CALM 0 0 0 0 1019.1 1019.1 0.0
22/09:35pm 14.5 15.6 13.5 94 0.6 CALM 0 0 0 0 1019.1 1019.1 0.0
22/09:30pm 14.0 15.0 13.1 94 0.5 CALM 0 0 0 0 1019.2 1019.2 0.0
22/09:14pm 13.9 14.0 12.8 93 0.6 NW 4 7 2 4 1019.2 1019.2 0.0
22/09:00pm 13.7 13.1 12.4 92 0.7 NW 7 9 4 5 1019.2 1019.2 0.0
22/08:30pm 14.9 15.9 13.1 89 1.0 CALM 0 0 0 0 1019.3 1019.3 0.0
22/08:00pm 15.5 16.5 13.3 87 1.2 CALM 0 0 0 0 1019.5 1019.5 0.0
22/07:30pm 15.7 16.6 12.8 83 1.6 CALM 0 0 0 0 1019.5 1019.5 0.0
22/07:00pm 16.2 16.7 12.9 81 1.8 NNE 2 7 1 4 1019.4 1019.4 0.0
22/06:30pm 19.3 19.7 14.8 75 2.6 NNE 6 9 3 5 1019.4 1019.4 0.0
22/06:00pm 20.4 20.0 15.2 72 3.1 NE 11 17 6 9 1019.1 1019.1 0.0
22/05:30pm 21.0 20.2 15.1 69 3.5 NE 13 17 7 9 1018.9 1018.9 0.0
22/05:00pm 21.7 22.1 14.8 65 4.1 NE 6 9 3 5 1019.2 1019.2 0.0
22/04:30pm 22.5 22.6 15.4 64 4.2 NE 9 15 5 8 1019.3 1019.3 0.0
22/04:00pm 23.1 23.0 14.9 60 4.9 NE 9 13 5 7 1019.3 1019.3 0.0
22/03:30pm 23.5 22.4 14.2 56 5.5 NE 13 17 7 9 1019.4 1019.4 0.0
22/03:00pm 24.0 23.3 13.2 50 6.2 ENE 9 17 5 9 1019.8 1019.8 0.0
22/02:30pm 24.0 23.6 12.9 50 6.4 ENE 7 13 4 7 1019.9 1019.9 0.0
22/02:00pm 24.3 23.8 12.6 48 6.7 NE 7 13 4 7 1020.0 1020.0 0.0
22/01:30pm 23.9 23.4 12.8 49 6.4 NE 7 13 4 7 1020.3 1020.3 0.0
22/01:00pm 23.4 22.5 12.7 51 6.1 N 9 15 5 8 1020.7 1020.7 0.0
22/12:30pm 22.6 22.3 12.8 54 5.6 SSE 6 13 3 7 1021.1 1021.1 0.0
22/12:00pm 21.6 21.3 13.2 59 4.8 SW 7 13 4 7 1021.8 1021.8 0.0
22/11:30am 20.8 20.7 13.3 62 4.3 N 6 9 3 5 1022.6 1022.6 0.0

Other Formats:

Comma delimited format used in spreadsheet applications
http://www.bom.gov.au/fwo/IDN60801/IDN60801.94765.axf

JavaScript Object Notation format (JSON) in row-major order
http://www.bom.gov.au/fwo/IDN60801/IDN60801.94765.json